sensor_id;sensor_type;location;lat;lon;timestamp;P1;durP1;ratioP1;P2;durP2;ratioP2
7929;SDS011;4010;42.698;23.124;2023-03-01T00:02:15;3.27;;;2.83;;
7929;SDS011;4010;42.698;23.124;2023-03-01T00:04:43;4.03;;;3.43;;
7929;SDS011;4010;42.698;23.124;2023-03-01T00:07:10;3.23;;;2.70;;
7929;SDS011;4010;42.698;23.124;2023-03-01T00:09:36;4.70;;;2.90;;
7929;SDS011;4010;42.698;23.124;2023-03-01T00:12:05;3.90;;;2.97;;
7929;SDS011;4010;42.698;23.124;2023-03-01T00:14:32;3.87;;;2.77;;
7929;SDS011;4010;42.698;23.124;2023-03-01T00:16:59;3.73;;;3.00;;
7929;SDS011;4010;42.698;23.124;2023-03-01T00:19:27;4.57;;;2.80;;
7929;SDS011;4010;42.698;23.124;2023-03-01T00:21:55;3.13;;;2.70;;
7929;SDS011;4010;42.698;23.124;2023-03-01T00:24:21;5.83;;;3.40;;
7929;SDS011;4010;42.698;23.124;2023-03-01T00:26:48;3.83;;;3.00;;
7929;SDS011;4010;42.698;23.124;2023-03-01T00:29:14;4.70;;;3.37;;
7929;SDS011;4010;42.698;23.124;2023-03-01T00:31:41;7.57;;;3.10;;
7929;SDS011;4010;42.698;23.124;2023-03-01T00:34:08;4.90;;;2.90;;
7929;SDS011;4010;42.698;23.124;2023-03-01T00:36:36;3.60;;;3.07;;
7929;SDS011;4010;42.698;23.124;2023-03-01T00:39:05;5.40;;;4.47;;
7929;SDS011;4010;42.698;23.124;2023-03-01T00:41:36;6.23;;;4.83;;
7929;SDS011;4010;42.698;23.124;2023-03-01T00:44:02;9.13;;;6.63;;
7929;SDS011;4010;42.698;23.124;2023-03-01T00:46:29;10.23;;;8.00;;
7929;SDS011;4010;42.698;23.124;2023-03-01T00:48:56;8.90;;;7.77;;
7929;SDS011;4010;42.698;23.124;2023-03-01T00:51:23;11.20;;;7.53;;
7929;SDS011;4010;42.698;23.124;2023-03-01T00:53:51;8.67;;;7.13;;
7929;SDS011;4010;42.698;23.124;2023-03-01T00:56:20;8.23;;;6.90;;
7929;SDS011;4010;42.698;23.124;2023-03-01T00:58:47;6.60;;;5.20;;
7929;SDS011;4010;42.698;23.124;2023-03-01T01:01:15;6.40;;;5.17;;
7929;SDS011;4010;42.698;23.124;2023-03-01T01:03:44;4.30;;;3.90;;
7929;SDS011;4010;42.698;23.124;2023-03-01T01:06:15;4.63;;;4.10;;
7929;SDS011;4010;42.698;23.124;2023-03-01T01:08:43;4.67;;;3.57;;
7929;SDS011;4010;42.698;23.124;2023-03-01T01:11:10;3.80;;;3.40;;
7929;SDS011;4010;42.698;23.124;2023-03-01T01:13:38;4.37;;;3.43;;
7929;SDS011;4010;42.698;23.124;2023-03-01T01:16:05;4.10;;;3.70;;
7929;SDS011;4010;42.698;23.124;2023-03-01T01:18:33;3.60;;;3.17;;
7929;SDS011;4010;42.698;23.124;2023-03-01T01:21:03;4.37;;;3.60;;
7929;SDS011;4010;42.698;23.124;2023-03-01T01:23:30;2.97;;;2.60;;
7929;SDS011;4010;42.698;23.124;2023-03-01T01:25:58;3.60;;;2.50;;
7929;SDS011;4010;42.698;23.124;2023-03-01T01:28:29;3.23;;;2.70;;
7929;SDS011;4010;42.698;23.124;2023-03-01T01:30:58;2.97;;;2.67;;
7929;SDS011;4010;42.698;23.124;2023-03-01T01:33:25;2.63;;;2.17;;
7929;SDS011;4010;42.698;23.124;2023-03-01T01:35:52;3.27;;;2.70;;
7929;SDS011;4010;42.698;23.124;2023-03-01T01:38:18;2.60;;;2.07;;
7929;SDS011;4010;42.698;23.124;2023-03-01T01:40:46;2.60;;;2.30;;
7929;SDS011;4010;42.698;23.124;2023-03-01T01:43:16;2.43;;;2.00;;
7929;SDS011;4010;42.698;23.124;2023-03-01T01:45:46;2.30;;;2.10;;
7929;SDS011;4010;42.698;23.124;2023-03-01T01:48:16;3.20;;;2.40;;
7929;SDS011;4010;42.698;23.124;2023-03-01T01:50:49;2.27;;;2.03;;
7929;SDS011;4010;42.698;23.124;2023-03-01T01:53:26;2.97;;;2.10;;
7929;SDS011;4010;42.698;23.124;2023-03-01T01:55:54;2.43;;;2.20;;
7929;SDS011;4010;42.698;23.124;2023-03-01T01:58:25;2.10;;;1.90;;
7929;SDS011;4010;42.698;23.124;2023-03-01T02:00:55;2.50;;;2.30;;
7929;SDS011;4010;42.698;23.124;2023-03-01T02:03:24;2.33;;;2.13;;
7929;SDS011;4010;42.698;23.124;2023-03-01T02:05:56;2.87;;;2.33;;
7929;SDS011;4010;42.698;23.124;2023-03-01T02:08:28;2.30;;;2.10;;
7929;SDS011;4010;42.698;23.124;2023-03-01T02:10:57;3.53;;;2.63;;
7929;SDS011;4010;42.698;23.124;2023-03-01T02:13:26;2.13;;;1.93;;
7929;SDS011;4010;42.698;23.124;2023-03-01T02:15:53;2.20;;;2.00;;
7929;SDS011;4010;42.698;23.124;2023-03-01T02:18:20;2.20;;;2.00;;
7929;SDS011;4010;42.698;23.124;2023-03-01T02:20:53;2.70;;;2.27;;
7929;SDS011;4010;42.698;23.124;2023-03-01T02:23:28;2.27;;;1.90;;
7929;SDS011;4010;42.698;23.124;2023-03-01T02:25:57;2.17;;;1.80;;
7929;SDS011;4010;42.698;23.124;2023-03-01T02:28:34;3.10;;;2.13;;
7929;SDS011;4010;42.698;23.124;2023-03-01T02:31:03;2.00;;;1.73;;
7929;SDS011;4010;42.698;23.124;2023-03-01T02:33:49;1.97;;;1.73;;
7929;SDS011;4010;42.698;23.124;2023-03-01T02:36:19;2.43;;;2.23;;
7929;SDS011;4010;42.698;23.124;2023-03-01T02:38:50;2.47;;;2.23;;
7929;SDS011;4010;42.698;23.124;2023-03-01T02:41:19;2.70;;;2.03;;
7929;SDS011;4010;42.698;23.124;2023-03-01T02:43:49;2.10;;;1.70;;
7929;SDS011;4010;42.698;23.124;2023-03-01T02:46:17;2.03;;;1.90;;
7929;SDS011;4010;42.698;23.124;2023-03-01T02:48:46;2.07;;;1.60;;
7929;SDS011;4010;42.698;23.124;2023-03-01T02:51:21;2.87;;;1.53;;
7929;SDS011;4010;42.698;23.124;2023-03-01T02:53:56;3.00;;;1.37;;
7929;SDS011;4010;42.698;23.124;2023-03-01T02:56:33;1.43;;;1.20;;
7929;SDS011;4010;42.698;23.124;2023-03-01T02:59:02;1.50;;;1.40;;
7929;SDS011;4010;42.698;23.124;2023-03-01T03:01:29;2.20;;;1.67;;
7929;SDS011;4010;42.698;23.124;2023-03-01T03:04:02;1.33;;;1.23;;
7929;SDS011;4010;42.698;23.124;2023-03-01T03:06:29;1.50;;;1.40;;
7929;SDS011;4010;42.698;23.124;2023-03-01T03:08:56;1.67;;;1.33;;
7929;SDS011;4010;42.698;23.124;2023-03-01T03:11:22;1.77;;;1.10;;
7929;SDS011;4010;42.698;23.124;2023-03-01T03:13:49;2.40;;;1.50;;
7929;SDS011;4010;42.698;23.124;2023-03-01T03:16:18;1.67;;;1.40;;
7929;SDS011;4010;42.698;23.124;2023-03-01T03:18:45;1.40;;;1.30;;
7929;SDS011;4010;42.698;23.124;2023-03-01T03:21:12;1.83;;;1.53;;
7929;SDS011;4010;42.698;23.124;2023-03-01T03:23:39;1.90;;;1.50;;
7929;SDS011;4010;42.698;23.124;2023-03-01T03:26:06;1.87;;;1.20;;
7929;SDS011;4010;42.698;23.124;2023-03-01T03:28:33;1.80;;;1.20;;
7929;SDS011;4010;42.698;23.124;2023-03-01T03:31:05;1.60;;;1.30;;
7929;SDS011;4010;42.698;23.124;2023-03-01T03:33:34;1.50;;;1.40;;
7929;SDS011;4010;42.698;23.124;2023-03-01T03:36:01;1.33;;;1.20;;
7929;SDS011;4010;42.698;23.124;2023-03-01T03:38:27;1.67;;;1.33;;
7929;SDS011;4010;42.698;23.124;2023-03-01T03:40:59;1.43;;;1.33;;
7929;SDS011;4010;42.698;23.124;2023-03-01T03:43:27;2.70;;;1.70;;
7929;SDS011;4010;42.698;23.124;2023-03-01T03:45:54;1.70;;;1.60;;
7929;SDS011;4010;42.698;23.124;2023-03-01T03:48:23;2.30;;;1.50;;
7929;SDS011;4010;42.698;23.124;2023-03-01T03:50:51;1.77;;;1.53;;
7929;SDS011;4010;42.698;23.124;2023-03-01T03:53:20;2.27;;;1.33;;
7929;SDS011;4010;42.698;23.124;2023-03-01T03:55:48;1.90;;;1.57;;
7929;SDS011;4010;42.698;23.124;2023-03-01T03:58:34;1.77;;;1.67;;
7929;SDS011;4010;42.698;23.124;2023-03-01T04:01:01;1.47;;;1.33;;
7929;SDS011;4010;42.698;23.124;2023-03-01T04:03:28;2.27;;;1.67;;
7929;SDS011;4010;42.698;23.124;2023-03-01T04:05:58;3.00;;;1.50;;
7929;SDS011;4010;42.698;23.124;2023-03-01T04:08:26;1.90;;;1.70;;
7929;SDS011;4010;42.698;23.124;2023-03-01T04:10:56;2.23;;;1.90;;
7929;SDS011;4010;42.698;23.124;2023-03-01T04:13:25;2.60;;;1.90;;
7929;SDS011;4010;42.698;23.124;2023-03-01T04:15:52;1.60;;;1.50;;
7929;SDS011;4010;42.698;23.124;2023-03-01T04:18:21;1.90;;;1.70;;
7929;SDS011;4010;42.698;23.124;2023-03-01T04:20:48;1.43;;;1.30;;
7929;SDS011;4010;42.698;23.124;2023-03-01T04:23:19;1.70;;;1.50;;
7929;SDS011;4010;42.698;23.124;2023-03-01T04:25:46;1.73;;;1.60;;
7929;SDS011;4010;42.698;23.124;2023-03-01T04:28:18;1.80;;;1.60;;
7929;SDS011;4010;42.698;23.124;2023-03-01T04:30:45;2.73;;;1.50;;
7929;SDS011;4010;42.698;23.124;2023-03-01T04:33:12;2.53;;;1.93;;
7929;SDS011;4010;42.698;23.124;2023-03-01T04:35:39;1.97;;;1.77;;
7929;SDS011;4010;42.698;23.124;2023-03-01T04:38:06;2.13;;;1.40;;
7929;SDS011;4010;42.698;23.124;2023-03-01T04:40:34;1.73;;;1.50;;
7929;SDS011;4010;42.698;23.124;2023-03-01T04:43:02;2.27;;;1.90;;
7929;SDS011;4010;42.698;23.124;2023-03-01T04:45:29;2.90;;;1.50;;
7929;SDS011;4010;42.698;23.124;2023-03-01T04:47:57;3.17;;;2.30;;
7929;SDS011;4010;42.698;23.124;2023-03-01T04:50:24;1.93;;;1.47;;
7929;SDS011;4010;42.698;23.124;2023-03-01T04:52:51;1.53;;;1.30;;
7929;SDS011;4010;42.698;23.124;2023-03-01T04:55:18;2.33;;;1.70;;
7929;SDS011;4010;42.698;23.124;2023-03-01T04:57:47;1.47;;;1.30;;
7929;SDS011;4010;42.698;23.124;2023-03-01T05:00:13;3.17;;;2.60;;
7929;SDS011;4010;42.698;23.124;2023-03-01T05:02:50;2.97;;;2.20;;
7929;SDS011;4010;42.698;23.124;2023-03-01T05:05:20;3.00;;;1.90;;
7929;SDS011;4010;42.698;23.124;2023-03-01T05:07:50;4.77;;;3.20;;
7929;SDS011;4010;42.698;23.124;2023-03-01T05:10:21;4.90;;;1.97;;
7929;SDS011;4010;42.698;23.124;2023-03-01T05:12:50;4.87;;;2.70;;
7929;SDS011;4010;42.698;23.124;2023-03-01T05:15:18;6.37;;;3.10;;
7929;SDS011;4010;42.698;23.124;2023-03-01T05:17:46;3.87;;;2.33;;
7929;SDS011;4010;42.698;23.124;2023-03-01T05:20:13;4.93;;;2.53;;
7929;SDS011;4010;42.698;23.124;2023-03-01T05:22:40;3.90;;;3.10;;
7929;SDS011;4010;42.698;23.124;2023-03-01T05:25:07;4.77;;;2.97;;
7929;SDS011;4010;42.698;23.124;2023-03-01T05:27:34;2.63;;;2.00;;
7929;SDS011;4010;42.698;23.124;2023-03-01T05:30:02;2.93;;;2.20;;
7929;SDS011;4010;42.698;23.124;2023-03-01T05:32:39;4.40;;;3.37;;
7929;SDS011;4010;42.698;23.124;2023-03-01T05:35:08;2.30;;;2.10;;
7929;SDS011;4010;42.698;23.124;2023-03-01T05:37:38;2.80;;;1.80;;
7929;SDS011;4010;42.698;23.124;2023-03-01T05:40:07;3.53;;;2.43;;
7929;SDS011;4010;42.698;23.124;2023-03-01T05:42:40;2.70;;;2.20;;
7929;SDS011;4010;42.698;23.124;2023-03-01T05:45:10;2.13;;;1.93;;
7929;SDS011;4010;42.698;23.124;2023-03-01T05:47:38;4.47;;;3.20;;
7929;SDS011;4010;42.698;23.124;2023-03-01T05:50:09;1.77;;;1.67;;
7929;SDS011;4010;42.698;23.124;2023-03-01T05:52:44;5.60;;;2.03;;
7929;SDS011;4010;42.698;23.124;2023-03-01T05:55:12;3.33;;;2.07;;
7929;SDS011;4010;42.698;23.124;2023-03-01T05:57:38;3.00;;;2.63;;
7929;SDS011;4010;42.698;23.124;2023-03-01T06:00:06;2.37;;;2.07;;
7929;SDS011;4010;42.698;23.124;2023-03-01T06:02:35;3.87;;;2.90;;
7929;SDS011;4010;42.698;23.124;2023-03-01T06:05:03;2.87;;;2.10;;
7929;SDS011;4010;42.698;23.124;2023-03-01T06:07:30;2.27;;;1.93;;
7929;SDS011;4010;42.698;23.124;2023-03-01T06:09:57;2.73;;;2.07;;
7929;SDS011;4010;42.698;23.124;2023-03-01T06:12:24;2.43;;;2.20;;
7929;SDS011;4010;42.698;23.124;2023-03-01T06:14:50;3.23;;;2.93;;
7929;SDS011;4010;42.698;23.124;2023-03-01T06:17:17;6.33;;;2.33;;
7929;SDS011;4010;42.698;23.124;2023-03-01T06:19:45;4.17;;;3.17;;
7929;SDS011;4010;42.698;23.124;2023-03-01T06:22:12;2.53;;;2.03;;
7929;SDS011;4010;42.698;23.124;2023-03-01T06:24:39;2.43;;;2.03;;
7929;SDS011;4010;42.698;23.124;2023-03-01T06:27:06;2.07;;;1.90;;
7929;SDS011;4010;42.698;23.124;2023-03-01T06:29:33;2.57;;;2.00;;
7929;SDS011;4010;42.698;23.124;2023-03-01T06:32:00;4.90;;;2.00;;
7929;SDS011;4010;42.698;23.124;2023-03-01T06:34:26;2.97;;;1.80;;
7929;SDS011;4010;42.698;23.124;2023-03-01T06:36:54;2.43;;;2.17;;
7929;SDS011;4010;42.698;23.124;2023-03-01T06:39:21;2.90;;;2.30;;
7929;SDS011;4010;42.698;23.124;2023-03-01T06:41:48;5.07;;;1.83;;
7929;SDS011;4010;42.698;23.124;2023-03-01T06:44:14;4.60;;;2.43;;
7929;SDS011;4010;42.698;23.124;2023-03-01T06:46:41;2.97;;;2.40;;
7929;SDS011;4010;42.698;23.124;2023-03-01T06:49:08;5.50;;;2.57;;
7929;SDS011;4010;42.698;23.124;2023-03-01T06:51:35;2.90;;;2.63;;
7929;SDS011;4010;42.698;23.124;2023-03-01T06:54:04;3.60;;;2.73;;
7929;SDS011;4010;42.698;23.124;2023-03-01T06:56:31;3.87;;;3.00;;
7929;SDS011;4010;42.698;23.124;2023-03-01T06:58:58;4.50;;;4.10;;
7929;SDS011;4010;42.698;23.124;2023-03-01T07:01:25;3.43;;;2.90;;
7929;SDS011;4010;42.698;23.124;2023-03-01T07:03:51;3.87;;;3.40;;
7929;SDS011;4010;42.698;23.124;2023-03-01T07:06:18;6.87;;;4.53;;
7929;SDS011;4010;42.698;23.124;2023-03-01T07:08:45;7.70;;;3.27;;
7929;SDS011;4010;42.698;23.124;2023-03-01T07:11:13;3.00;;;2.70;;
7929;SDS011;4010;42.698;23.124;2023-03-01T07:13:40;3.67;;;3.10;;
7929;SDS011;4010;42.698;23.124;2023-03-01T07:16:07;3.70;;;2.93;;
7929;SDS011;4010;42.698;23.124;2023-03-01T07:18:34;3.03;;;2.73;;
7929;SDS011;4010;42.698;23.124;2023-03-01T07:21:03;2.90;;;2.40;;
7929;SDS011;4010;42.698;23.124;2023-03-01T07:23:30;3.27;;;2.80;;
7929;SDS011;4010;42.698;23.124;2023-03-01T07:25:57;4.23;;;3.80;;
7929;SDS011;4010;42.698;23.124;2023-03-01T07:28:26;4.20;;;3.07;;
7929;SDS011;4010;42.698;23.124;2023-03-01T07:30:54;3.70;;;2.87;;
7929;SDS011;4010;42.698;23.124;2023-03-01T07:33:21;4.07;;;3.53;;
7929;SDS011;4010;42.698;23.124;2023-03-01T07:35:48;4.17;;;3.73;;
7929;SDS011;4010;42.698;23.124;2023-03-01T07:38:14;4.43;;;3.37;;
7929;SDS011;4010;42.698;23.124;2023-03-01T07:40:41;3.50;;;3.20;;
7929;SDS011;4010;42.698;23.124;2023-03-01T07:43:08;4.87;;;3.00;;
7929;SDS011;4010;42.698;23.124;2023-03-01T07:45:36;4.40;;;3.40;;
7929;SDS011;4010;42.698;23.124;2023-03-01T07:48:02;7.50;;;3.53;;
7929;SDS011;4010;42.698;23.124;2023-03-01T07:50:29;3.17;;;2.87;;
7929;SDS011;4010;42.698;23.124;2023-03-01T07:52:56;2.50;;;2.00;;
7929;SDS011;4010;42.698;23.124;2023-03-01T07:55:22;3.30;;;2.77;;
7929;SDS011;4010;42.698;23.124;2023-03-01T07:57:49;6.10;;;2.70;;
7929;SDS011;4010;42.698;23.124;2023-03-01T08:00:16;2.87;;;2.47;;
7929;SDS011;4010;42.698;23.124;2023-03-01T08:02:45;4.20;;;2.67;;
7929;SDS011;4010;42.698;23.124;2023-03-01T08:05:12;3.50;;;2.90;;
7929;SDS011;4010;42.698;23.124;2023-03-01T08:07:38;3.07;;;2.53;;
7929;SDS011;4010;42.698;23.124;2023-03-01T08:10:05;4.60;;;2.80;;
7929;SDS011;4010;42.698;23.124;2023-03-01T08:12:32;3.57;;;2.83;;
7929;SDS011;4010;42.698;23.124;2023-03-01T08:14:59;2.97;;;2.70;;
7929;SDS011;4010;42.698;23.124;2023-03-01T08:17:26;3.07;;;2.70;;
7929;SDS011;4010;42.698;23.124;2023-03-01T08:19:54;3.00;;;2.70;;
7929;SDS011;4010;42.698;23.124;2023-03-01T08:22:21;3.93;;;2.63;;
7929;SDS011;4010;42.698;23.124;2023-03-01T08:24:47;3.33;;;2.50;;
7929;SDS011;4010;42.698;23.124;2023-03-01T08:27:14;4.53;;;3.13;;
7929;SDS011;4010;42.698;23.124;2023-03-01T08:29:41;2.70;;;2.50;;
7929;SDS011;4010;42.698;23.124;2023-03-01T08:32:08;5.83;;;3.23;;
7929;SDS011;4010;42.698;23.124;2023-03-01T08:34:35;3.87;;;3.03;;
7929;SDS011;4010;42.698;23.124;2023-03-01T08:37:03;3.30;;;2.70;;
7929;SDS011;4010;42.698;23.124;2023-03-01T08:39:29;2.83;;;2.50;;
7929;SDS011;4010;42.698;23.124;2023-03-01T08:41:56;2.97;;;2.67;;
7929;SDS011;4010;42.698;23.124;2023-03-01T08:44:23;2.97;;;2.40;;
7929;SDS011;4010;42.698;23.124;2023-03-01T08:46:50;3.30;;;3.00;;
7929;SDS011;4010;42.698;23.124;2023-03-01T08:49:18;2.87;;;2.53;;
7929;SDS011;4010;42.698;23.124;2023-03-01T08:51:46;5.53;;;3.10;;
7929;SDS011;4010;42.698;23.124;2023-03-01T08:54:15;3.33;;;3.03;;
7929;SDS011;4010;42.698;23.124;2023-03-01T08:56:43;3.20;;;2.87;;
7929;SDS011;4010;42.698;23.124;2023-03-01T08:59:11;3.70;;;3.40;;
7929;SDS011;4010;42.698;23.124;2023-03-01T09:01:38;3.63;;;3.27;;
7929;SDS011;4010;42.698;23.124;2023-03-01T09:04:08;4.10;;;3.53;;
7929;SDS011;4010;42.698;23.124;2023-03-01T09:06:35;3.47;;;3.10;;
7929;SDS011;4010;42.698;23.124;2023-03-01T09:09:03;6.13;;;3.90;;
7929;SDS011;4010;42.698;23.124;2023-03-01T09:11:32;3.67;;;3.30;;
7929;SDS011;4010;42.698;23.124;2023-03-01T09:13:59;4.63;;;3.43;;
7929;SDS011;4010;42.698;23.124;2023-03-01T09:16:26;4.73;;;3.90;;
7929;SDS011;4010;42.698;23.124;2023-03-01T09:18:54;4.17;;;3.77;;
7929;SDS011;4010;42.698;23.124;2023-03-01T09:21:22;4.87;;;3.77;;
7929;SDS011;4010;42.698;23.124;2023-03-01T09:23:49;4.27;;;3.40;;
7929;SDS011;4010;42.698;23.124;2023-03-01T09:26:17;4.70;;;3.50;;
7929;SDS011;4010;42.698;23.124;2023-03-01T09:28:47;3.70;;;3.03;;
7929;SDS011;4010;42.698;23.124;2023-03-01T09:31:16;5.53;;;3.07;;
7929;SDS011;4010;42.698;23.124;2023-03-01T09:33:45;4.93;;;3.53;;
7929;SDS011;4010;42.698;23.124;2023-03-01T09:36:14;2.70;;;2.47;;
7929;SDS011;4010;42.698;23.124;2023-03-01T09:38:42;3.80;;;3.10;;
7929;SDS011;4010;42.698;23.124;2023-03-01T09:41:09;4.40;;;2.63;;
7929;SDS011;4010;42.698;23.124;2023-03-01T09:43:46;2.50;;;2.30;;
7929;SDS011;4010;42.698;23.124;2023-03-01T09:46:19;2.90;;;2.60;;
7929;SDS011;4010;42.698;23.124;2023-03-01T09:48:49;3.13;;;2.80;;
7929;SDS011;4010;42.698;23.124;2023-03-01T09:51:22;2.43;;;2.10;;
7929;SDS011;4010;42.698;23.124;2023-03-01T09:53:53;2.50;;;2.30;;
7929;SDS011;4010;42.698;23.124;2023-03-01T09:56:22;3.87;;;2.97;;
7929;SDS011;4010;42.698;23.124;2023-03-01T09:58:58;2.60;;;2.40;;
7929;SDS011;4010;42.698;23.124;2023-03-01T10:01:32;2.93;;;2.57;;
7929;SDS011;4010;42.698;23.124;2023-03-01T10:04:26;2.57;;;2.20;;
7929;SDS011;4010;42.698;23.124;2023-03-01T10:07:06;3.63;;;2.13;;
7929;SDS011;4010;42.698;23.124;2023-03-01T10:09:45;2.60;;;2.20;;
7929;SDS011;4010;42.698;23.124;2023-03-01T10:12:14;3.77;;;2.20;;
7929;SDS011;4010;42.698;23.124;2023-03-01T10:14:47;2.43;;;2.23;;
7929;SDS011;4010;42.698;23.124;2023-03-01T10:17:23;2.53;;;1.80;;
7929;SDS011;4010;42.698;23.124;2023-03-01T10:19:53;2.67;;;2.33;;
7929;SDS011;4010;42.698;23.124;2023-03-01T10:22:22;2.63;;;2.43;;
7929;SDS011;4010;42.698;23.124;2023-03-01T10:24:53;4.50;;;2.27;;
7929;SDS011;4010;42.698;23.124;2023-03-01T10:27:22;2.20;;;2.00;;
7929;SDS011;4010;42.698;23.124;2023-03-01T10:30:05;2.40;;;2.20;;
7929;SDS011;4010;42.698;23.124;2023-03-01T10:32:41;2.50;;;2.30;;
7929;SDS011;4010;42.698;23.124;2023-03-01T10:35:18;2.73;;;2.10;;
7929;SDS011;4010;42.698;23.124;2023-03-01T10:37:56;3.37;;;2.40;;
7929;SDS011;4010;42.698;23.124;2023-03-01T10:40:24;2.47;;;1.80;;
7929;SDS011;4010;42.698;23.124;2023-03-01T10:42:51;1.97;;;1.70;;
7929;SDS011;4010;42.698;23.124;2023-03-01T10:45:26;2.23;;;2.00;;
7929;SDS011;4010;42.698;23.124;2023-03-01T10:48:11;2.77;;;2.43;;
7929;SDS011;4010;42.698;23.124;2023-03-01T10:50:40;3.43;;;2.20;;
7929;SDS011;4010;42.698;23.124;2023-03-01T10:53:16;2.47;;;2.10;;
7929;SDS011;4010;42.698;23.124;2023-03-01T10:55:48;2.50;;;1.80;;
7929;SDS011;4010;42.698;23.124;2023-03-01T10:58:23;3.23;;;2.47;;
7929;SDS011;4010;42.698;23.124;2023-03-01T11:00:52;3.27;;;2.33;;
7929;SDS011;4010;42.698;23.124;2023-03-01T11:03:24;2.53;;;2.20;;
7929;SDS011;4010;42.698;23.124;2023-03-01T11:05:57;2.37;;;2.10;;
7929;SDS011;4010;42.698;23.124;2023-03-01T11:08:35;3.20;;;2.40;;
7929;SDS011;4010;42.698;23.124;2023-03-01T11:11:13;2.83;;;2.13;;
7929;SDS011;4010;42.698;23.124;2023-03-01T11:16:34;2.90;;;2.47;;
7929;SDS011;4010;42.698;23.124;2023-03-01T11:19:16;3.20;;;2.37;;
7929;SDS011;4010;42.698;23.124;2023-03-01T11:24:39;2.60;;;2.27;;
7929;SDS011;4010;42.698;23.124;2023-03-01T11:27:13;3.57;;;2.30;;
7929;SDS011;4010;42.698;23.124;2023-03-01T11:29:44;3.23;;;2.43;;
7929;SDS011;4010;42.698;23.124;2023-03-01T11:32:17;2.40;;;2.20;;
7929;SDS011;4010;42.698;23.124;2023-03-01T11:34:47;3.80;;;2.53;;
7929;SDS011;4010;42.698;23.124;2023-03-01T11:37:21;4.83;;;2.40;;
7929;SDS011;4010;42.698;23.124;2023-03-01T11:40:03;2.60;;;2.40;;
7929;SDS011;4010;42.698;23.124;2023-03-01T11:42:43;2.67;;;2.17;;
7929;SDS011;4010;42.698;23.124;2023-03-01T11:45:15;3.17;;;2.60;;
7929;SDS011;4010;42.698;23.124;2023-03-01T11:47:50;2.80;;;2.30;;
7929;SDS011;4010;42.698;23.124;2023-03-01T11:50:29;3.10;;;2.33;;
7929;SDS011;4010;42.698;23.124;2023-03-01T11:53:05;4.20;;;3.30;;
7929;SDS011;4010;42.698;23.124;2023-03-01T11:55:50;3.83;;;2.67;;
7929;SDS011;4010;42.698;23.124;2023-03-01T11:58:31;4.73;;;2.63;;
7929;SDS011;4010;42.698;23.124;2023-03-01T12:01:16;3.17;;;2.40;;
7929;SDS011;4010;42.698;23.124;2023-03-01T12:07:00;3.10;;;2.80;;
7929;SDS011;4010;42.698;23.124;2023-03-01T12:09:38;3.87;;;2.20;;
7929;SDS011;4010;42.698;23.124;2023-03-01T12:12:22;2.40;;;2.20;;
7929;SDS011;4010;42.698;23.124;2023-03-01T12:15:07;2.70;;;1.90;;
7929;SDS011;4010;42.698;23.124;2023-03-01T12:17:52;2.23;;;2.03;;
7929;SDS011;4010;42.698;23.124;2023-03-01T12:20:32;2.40;;;2.20;;
7929;SDS011;4010;42.698;23.124;2023-03-01T12:23:20;4.57;;;2.33;;
7929;SDS011;4010;42.698;23.124;2023-03-01T12:26:06;3.80;;;2.77;;
7929;SDS011;4010;42.698;23.124;2023-03-01T12:28:45;3.00;;;2.33;;
7929;SDS011;4010;42.698;23.124;2023-03-01T12:31:29;3.03;;;2.23;;
7929;SDS011;4010;42.698;23.124;2023-03-01T12:34:16;3.70;;;2.30;;
7929;SDS011;4010;42.698;23.124;2023-03-01T12:37:03;3.50;;;2.40;;
7929;SDS011;4010;42.698;23.124;2023-03-01T12:39:47;3.73;;;2.23;;
7929;SDS011;4010;42.698;23.124;2023-03-01T12:42:26;5.90;;;2.80;;
7929;SDS011;4010;42.698;23.124;2023-03-01T12:45:16;2.80;;;2.30;;
7929;SDS011;4010;42.698;23.124;2023-03-01T12:48:12;6.17;;;2.47;;
7929;SDS011;4010;42.698;23.124;2023-03-01T12:50:51;3.50;;;2.73;;
7929;SDS011;4010;42.698;23.124;2023-03-01T12:53:22;2.90;;;2.23;;
7929;SDS011;4010;42.698;23.124;2023-03-01T12:55:52;5.80;;;3.23;;
7929;SDS011;4010;42.698;23.124;2023-03-01T12:58:24;2.97;;;2.67;;
7929;SDS011;4010;42.698;23.124;2023-03-01T13:01:00;2.43;;;2.20;;
7929;SDS011;4010;42.698;23.124;2023-03-01T13:03:42;3.27;;;2.70;;
7929;SDS011;4010;42.698;23.124;2023-03-01T13:06:24;2.83;;;2.47;;
7929;SDS011;4010;42.698;23.124;2023-03-01T13:08:56;6.13;;;2.77;;
7929;SDS011;4010;42.698;23.124;2023-03-01T13:11:30;2.87;;;2.47;;
7929;SDS011;4010;42.698;23.124;2023-03-01T13:16:56;3.63;;;2.30;;
7929;SDS011;4010;42.698;23.124;2023-03-01T13:19:24;3.40;;;2.70;;
7929;SDS011;4010;42.698;23.124;2023-03-01T13:21:52;3.50;;;2.57;;
7929;SDS011;4010;42.698;23.124;2023-03-01T13:24:23;3.00;;;2.50;;
7929;SDS011;4010;42.698;23.124;2023-03-01T13:29:50;3.37;;;2.37;;
7929;SDS011;4010;42.698;23.124;2023-03-01T13:32:19;2.53;;;2.10;;
7929;SDS011;4010;42.698;23.124;2023-03-01T13:34:48;2.70;;;2.43;;
7929;SDS011;4010;42.698;23.124;2023-03-01T13:37:21;2.47;;;2.27;;
7929;SDS011;4010;42.698;23.124;2023-03-01T13:39:59;5.60;;;2.93;;
7929;SDS011;4010;42.698;23.124;2023-03-01T13:42:39;3.70;;;2.80;;
7929;SDS011;4010;42.698;23.124;2023-03-01T13:45:21;5.47;;;2.60;;
7929;SDS011;4010;42.698;23.124;2023-03-01T13:47:56;3.90;;;2.97;;
7929;SDS011;4010;42.698;23.124;2023-03-01T13:50:25;3.53;;;2.90;;
7929;SDS011;4010;42.698;23.124;2023-03-01T13:52:55;3.20;;;2.50;;
7929;SDS011;4010;42.698;23.124;2023-03-01T13:55:26;2.97;;;2.63;;
7929;SDS011;4010;42.698;23.124;2023-03-01T13:58:03;3.23;;;2.83;;
7929;SDS011;4010;42.698;23.124;2023-03-01T14:00:40;3.43;;;2.87;;
7929;SDS011;4010;42.698;23.124;2023-03-01T14:03:12;3.63;;;2.60;;
7929;SDS011;4010;42.698;23.124;2023-03-01T14:05:41;4.50;;;3.03;;
7929;SDS011;4010;42.698;23.124;2023-03-01T14:08:18;5.40;;;3.50;;
7929;SDS011;4010;42.698;23.124;2023-03-01T14:10:52;5.57;;;2.87;;
7929;SDS011;4010;42.698;23.124;2023-03-01T14:13:29;3.10;;;2.43;;
7929;SDS011;4010;42.698;23.124;2023-03-01T14:16:12;6.03;;;2.43;;
7929;SDS011;4010;42.698;23.124;2023-03-01T14:18:52;3.37;;;2.47;;
7929;SDS011;4010;42.698;23.124;2023-03-01T14:21:30;3.43;;;2.60;;
7929;SDS011;4010;42.698;23.124;2023-03-01T14:23:57;3.27;;;2.63;;
7929;SDS011;4010;42.698;23.124;2023-03-01T14:26:24;3.63;;;2.87;;
7929;SDS011;4010;42.698;23.124;2023-03-01T14:28:53;3.57;;;2.40;;
7929;SDS011;4010;42.698;23.124;2023-03-01T14:31:31;3.43;;;2.40;;
7929;SDS011;4010;42.698;23.124;2023-03-01T14:34:01;3.97;;;3.00;;
7929;SDS011;4010;42.698;23.124;2023-03-01T14:36:29;4.03;;;2.90;;
7929;SDS011;4010;42.698;23.124;2023-03-01T14:38:57;3.33;;;2.40;;
7929;SDS011;4010;42.698;23.124;2023-03-01T14:41:29;4.30;;;2.70;;
7929;SDS011;4010;42.698;23.124;2023-03-01T14:44:01;2.80;;;2.50;;
7929;SDS011;4010;42.698;23.124;2023-03-01T14:46:30;3.50;;;3.17;;
7929;SDS011;4010;42.698;23.124;2023-03-01T14:49:01;3.50;;;2.40;;
7929;SDS011;4010;42.698;23.124;2023-03-01T14:51:30;4.23;;;2.77;;
7929;SDS011;4010;42.698;23.124;2023-03-01T14:54:02;4.77;;;2.80;;
7929;SDS011;4010;42.698;23.124;2023-03-01T14:56:32;3.43;;;2.27;;
7929;SDS011;4010;42.698;23.124;2023-03-01T14:59:14;5.40;;;2.90;;
7929;SDS011;4010;42.698;23.124;2023-03-01T15:01:41;2.53;;;2.17;;
7929;SDS011;4010;42.698;23.124;2023-03-01T15:04:10;4.40;;;2.77;;
7929;SDS011;4010;42.698;23.124;2023-03-01T15:06:39;4.23;;;3.17;;
7929;SDS011;4010;42.698;23.124;2023-03-01T15:09:06;3.03;;;2.70;;
7929;SDS011;4010;42.698;23.124;2023-03-01T15:11:40;3.37;;;2.23;;
7929;SDS011;4010;42.698;23.124;2023-03-01T15:17:04;5.17;;;3.40;;
7929;SDS011;4010;42.698;23.124;2023-03-01T15:19:31;4.93;;;3.10;;
7929;SDS011;4010;42.698;23.124;2023-03-01T15:21:58;4.87;;;2.27;;
7929;SDS011;4010;42.698;23.124;2023-03-01T15:24:25;5.10;;;2.80;;
7929;SDS011;4010;42.698;23.124;2023-03-01T15:26:55;3.93;;;2.50;;
7929;SDS011;4010;42.698;23.124;2023-03-01T15:29:27;3.33;;;2.23;;
7929;SDS011;4010;42.698;23.124;2023-03-01T15:31:59;4.40;;;2.70;;
7929;SDS011;4010;42.698;23.124;2023-03-01T15:34:29;5.20;;;3.10;;
7929;SDS011;4010;42.698;23.124;2023-03-01T15:36:57;4.00;;;2.73;;
7929;SDS011;4010;42.698;23.124;2023-03-01T15:39:28;6.17;;;2.60;;